createdAt,value
2019-04-14T00:00:32.142Z,3.50
2019-04-14T00:01:32.607Z,3.50
2019-04-14T00:02:32.135Z,3.48
2019-04-14T00:03:32.493Z,3.48
2019-04-14T00:04:33.138Z,3.53
2019-04-14T00:05:34.036Z,3.51
2019-04-14T00:06:32.995Z,3.51
2019-04-14T00:07:32.067Z,3.53
2019-04-14T00:08:32.710Z,3.47
2019-04-14T00:09:32.057Z,3.51
2019-04-14T00:10:33.253Z,3.51
2019-04-14T00:11:32.267Z,3.36
2019-04-14T00:12:32.012Z,3.41
2019-04-14T00:13:32.807Z,3.41
2019-04-14T00:14:31.992Z,3.41
2019-04-14T00:15:38.621Z,3.41
2019-04-14T00:16:33.477Z,3.45
2019-04-14T00:17:32.688Z,3.44
2019-04-14T00:18:31.946Z,3.50
2019-04-14T00:19:32.699Z,3.37
2019-04-14T00:20:31.924Z,3.34
2019-04-14T00:21:32.490Z,3.44
2019-04-14T00:22:32.197Z,3.45
2019-04-14T00:23:32.640Z,3.41
2019-04-14T00:24:31.882Z,3.44
2019-04-14T00:25:32.597Z,3.41
2019-04-14T00:26:31.860Z,3.41
2019-04-14T00:27:32.400Z,3.45
2019-04-14T00:28:31.846Z,3.42
2019-04-14T00:29:32.752Z,3.47
2019-04-14T00:30:31.822Z,3.44
2019-04-14T00:31:32.853Z,3.48
2019-04-14T00:32:31.792Z,3.50
2019-04-14T00:33:32.364Z,3.47
2019-04-14T00:34:33.044Z,3.42
2019-04-14T00:35:32.067Z,3.44
2019-04-14T00:36:32.631Z,3.44
2019-04-14T00:37:31.765Z,3.51
2019-04-14T00:38:32.333Z,3.32
2019-04-14T00:39:31.717Z,3.44
2019-04-14T00:40:32.990Z,3.32
2019-04-14T00:41:41.657Z,3.44
2019-04-14T00:42:32.691Z,3.48
2019-04-14T00:43:31.671Z,3.51
2019-04-14T00:44:31.906Z,3.47
2019-04-14T00:45:40.259Z,3.50
2019-04-14T00:46:34.163Z,3.42
2019-04-14T00:47:31.641Z,3.53
2019-04-14T00:48:32.024Z,3.55
2019-04-14T00:49:31.618Z,3.36
2019-04-14T00:50:31.929Z,3.42
2019-04-14T00:51:31.598Z,3.40
2019-04-14T00:52:31.880Z,3.47
2019-04-14T00:53:31.714Z,3.44
2019-04-14T00:54:32.514Z,3.42
2019-04-14T00:55:31.544Z,3.44
2019-04-14T00:56:32.279Z,3.32
2019-04-14T00:57:31.518Z,3.42
2019-04-14T00:58:32.213Z,3.32
2019-04-14T00:59:31.505Z,3.29
2019-04-14T01:00:32.020Z,3.25
2019-04-14T01:01:31.480Z,3.28
2019-04-14T01:02:31.851Z,3.29
2019-04-14T01:03:31.463Z,3.31
2019-04-14T01:04:31.691Z,3.36
2019-04-14T01:05:33.378Z,3.22
2019-04-14T01:06:31.501Z,3.31
2019-04-14T01:07:32.631Z,3.29
2019-04-14T01:08:31.476Z,3.31
2019-04-14T01:09:32.622Z,3.26
2019-04-14T01:10:32.208Z,3.32
2019-04-14T01:11:31.402Z,3.25
2019-04-14T01:12:32.119Z,3.25
2019-04-14T01:13:31.352Z,3.32
2019-04-14T01:14:32.009Z,3.36
2019-04-14T01:15:44.828Z,3.25
2019-04-14T01:16:32.307Z,3.32
2019-04-14T01:17:31.302Z,3.25
2019-04-14T01:18:31.957Z,3.36
2019-04-14T01:19:31.282Z,3.29
2019-04-14T01:20:31.834Z,3.34
2019-04-14T01:21:31.265Z,3.26
2019-04-14T01:22:31.493Z,3.22
2019-04-14T01:23:32.556Z,3.26
2019-04-14T01:24:31.555Z,3.23
2019-04-14T01:25:32.365Z,3.31
2019-04-14T01:26:31.218Z,3.26
2019-04-14T01:27:32.029Z,3.25
2019-04-14T01:28:31.177Z,3.28
2019-04-14T01:29:31.976Z,3.29
2019-04-14T01:30:31.158Z,3.36
2019-04-14T01:31:31.705Z,3.31
2019-04-14T01:32:31.149Z,3.28
2019-04-14T01:33:31.589Z,3.31
2019-04-14T01:34:32.330Z,3.34
2019-04-14T01:35:31.437Z,3.23
2019-04-14T01:36:31.999Z,3.28
2019-04-14T01:37:31.213Z,3.28
2019-04-14T01:38:31.953Z,3.36
2019-04-14T01:39:31.057Z,3.23
2019-04-14T01:40:31.472Z,3.23
2019-04-14T01:41:31.036Z,3.29
2019-04-14T01:42:31.118Z,3.32
2019-04-14T01:43:32.122Z,3.31
2019-04-14T01:44:31.015Z,3.37
2019-04-14T01:45:31.746Z,3.37
2019-04-14T01:46:33.058Z,3.34
2019-04-14T01:47:31.386Z,3.40
2019-04-14T01:48:30.960Z,3.31
2019-04-14T01:49:31.141Z,3.44
2019-04-14T01:50:30.951Z,3.44
2019-04-14T01:51:31.001Z,3.42
2019-04-14T01:52:32.019Z,3.45
2019-04-14T01:53:31.490Z,3.45
2019-04-14T01:54:30.898Z,3.44
2019-04-14T01:55:30.941Z,3.42
2019-04-14T01:56:31.953Z,3.37
2019-04-14T01:57:30.860Z,3.47
2019-04-14T01:58:31.754Z,3.40
2019-04-14T01:59:30.842Z,3.40
2019-04-14T02:00:31.597Z,3.44
2019-04-14T02:01:30.822Z,3.40
2019-04-14T02:02:31.500Z,3.28
2019-04-14T02:03:30.796Z,3.28
2019-04-14T02:04:31.277Z,3.31
2019-04-14T02:05:30.774Z,3.21
2019-04-14T02:06:31.251Z,3.28
2019-04-14T02:07:31.877Z,3.29
2019-04-14T02:08:30.885Z,3.22
2019-04-14T02:09:31.625Z,3.21
2019-04-14T02:10:30.722Z,3.16
2019-04-14T02:11:31.371Z,3.14
2019-04-14T02:12:30.713Z,3.11
2019-04-14T02:13:31.127Z,3.13
2019-04-14T02:14:30.693Z,3.13
2019-04-14T02:15:30.929Z,3.21
2019-04-14T02:16:37.835Z,3.13
2019-04-14T02:17:32.748Z,3.11
2019-04-14T02:18:31.784Z,3.16
2019-04-14T02:19:30.672Z,3.13
2019-04-14T02:20:31.784Z,3.19
2019-04-14T02:21:30.596Z,3.19
2019-04-14T02:22:31.282Z,3.14
2019-04-14T02:23:30.576Z,3.19
2019-04-14T02:24:30.949Z,3.19
2019-04-14T02:25:31.673Z,3.23
2019-04-14T02:26:30.937Z,3.13
2019-04-14T02:27:31.723Z,3.25
2019-04-14T02:28:31.014Z,3.25
2019-04-14T02:29:31.783Z,3.26
2019-04-14T02:30:36.577Z,3.22
2019-04-14T02:31:56.855Z,3.23
2019-04-14T02:32:57.291Z,3.23
2019-04-14T02:33:58.253Z,3.26
2019-04-14T02:34:57.202Z,3.23
2019-04-14T02:37:05.319Z,3.19
2019-04-14T02:38:02.296Z,3.16
2019-04-14T02:39:15.583Z,3.14
2019-04-14T02:42:06.792Z,3.18
2019-04-14T02:43:08.428Z,3.13
2019-04-14T02:44:15.855Z,3.23
2019-04-14T02:44:59.845Z,3.26
2019-04-14T02:48:03.839Z,3.26
2019-04-14T02:48:58.405Z,3.25
2019-04-14T02:49:59.722Z,3.28
2019-04-14T02:50:56.169Z,3.22
2019-04-14T02:51:58.482Z,3.25
2019-04-14T02:53:03.701Z,3.29
2019-04-14T02:53:59.362Z,3.26
2019-04-14T02:54:58.772Z,3.29
2019-04-14T02:56:07.690Z,3.28
2019-04-14T02:58:01.173Z,3.26
2019-04-14T02:59:58.831Z,3.13
2019-04-14T03:01:14.692Z,3.13
2019-04-14T03:02:59.561Z,3.16
2019-04-14T03:05:00.004Z,3.18
2019-04-14T03:06:01.568Z,3.14
2019-04-14T03:06:58.202Z,3.14
2019-04-14T03:08:59.032Z,3.14
2019-04-14T03:10:12.582Z,3.10
2019-04-14T03:10:57.741Z,3.07
2019-04-14T03:11:51.804Z,3.16
2019-04-14T03:12:57.859Z,3.08
2019-04-14T03:13:58.349Z,3.16
2019-04-14T03:15:13.051Z,3.08
2019-04-14T03:15:59.112Z,3.18
2019-04-14T03:17:08.147Z,3.10
2019-04-14T03:18:16.994Z,3.13
2019-04-14T03:18:52.455Z,3.04
2019-04-14T03:20:06.524Z,3.07
2019-04-14T03:20:59.140Z,3.18
2019-04-14T03:22:09.715Z,3.14
2019-04-14T03:23:55.743Z,3.13
2019-04-14T03:24:42.160Z,3.13
2019-04-14T03:25:51.310Z,3.13
2019-04-14T03:26:54.193Z,3.14
2019-04-14T03:27:58.421Z,3.16
2019-04-14T03:28:50.761Z,3.16
2019-04-14T03:30:05.052Z,3.14
2019-04-14T03:31:12.218Z,3.14
2019-04-14T03:33:18.442Z,3.03
2019-04-14T03:35:04.005Z,3.11
2019-04-14T03:36:16.698Z,3.10
2019-04-14T03:37:59.465Z,3.07
2019-04-14T03:39:00.084Z,3.07
2019-04-14T03:39:51.867Z,3.04
2019-04-14T03:40:58.627Z,3.03
2019-04-14T03:42:00.874Z,3.03
2019-04-14T03:43:05.844Z,2.97
2019-04-14T03:44:11.839Z,2.98
2019-04-14T03:44:56.536Z,2.97
2019-04-14T03:45:59.218Z,2.98
2019-04-14T03:47:03.098Z,2.97
2019-04-14T03:48:31.769Z,2.97
2019-04-14T03:49:59.775Z,2.86
2019-04-14T03:51:06.763Z,2.82
2019-04-14T03:52:55.844Z,2.83
2019-04-14T03:53:53.415Z,2.85
2019-04-14T03:54:50.123Z,2.77
2019-04-14T03:55:39.493Z,2.75
2019-04-14T03:56:31.326Z,2.83
2019-04-14T03:57:30.961Z,2.80
2019-04-14T03:58:29.538Z,2.69
2019-04-14T03:59:30.272Z,2.69
2019-04-14T04:00:29.535Z,2.71
2019-04-14T04:01:30.201Z,2.65
2019-04-14T04:02:29.502Z,2.72
2019-04-14T04:03:30.353Z,2.69
2019-04-14T04:04:29.509Z,2.71
2019-04-14T04:05:30.284Z,2.68
2019-04-14T04:06:29.455Z,2.67
2019-04-14T04:07:30.046Z,2.65
2019-04-14T04:08:29.427Z,2.68
2019-04-14T04:09:30.047Z,2.75
2019-04-14T04:10:29.432Z,2.72
2019-04-14T04:11:30.128Z,2.69
2019-04-14T04:12:29.393Z,2.61
2019-04-14T04:13:30.243Z,2.65
2019-04-14T04:14:29.403Z,2.61
2019-04-14T04:15:30.034Z,2.65
2019-04-14T04:16:29.357Z,2.61
2019-04-14T04:17:29.811Z,2.67
2019-04-14T04:18:29.338Z,2.64
2019-04-14T04:19:29.470Z,2.61
2019-04-14T04:20:29.302Z,2.60
2019-04-14T04:21:29.289Z,2.56
2019-04-14T04:22:30.325Z,2.51
2019-04-14T04:23:29.273Z,2.53
2019-04-14T04:24:31.595Z,2.46
2019-04-14T04:25:29.242Z,2.49
2019-04-14T04:26:30.024Z,2.50
2019-04-14T04:27:29.244Z,2.49
2019-04-14T04:28:29.897Z,2.36
2019-04-14T04:29:29.219Z,2.43
2019-04-14T04:30:29.731Z,2.42
2019-04-14T04:31:29.180Z,2.42
2019-04-14T04:32:29.767Z,2.35
2019-04-14T04:33:29.184Z,2.31
2019-04-14T04:34:29.465Z,2.31
2019-04-14T04:35:30.160Z,2.35
2019-04-14T04:36:29.205Z,2.17
2019-04-14T04:37:30.071Z,2.18
2019-04-14T04:38:29.151Z,2.15
2019-04-14T04:39:30.160Z,2.25
2019-04-14T04:40:29.139Z,2.15
2019-04-14T04:41:29.637Z,2.25
2019-04-14T04:42:29.055Z,2.25
2019-04-14T04:43:29.767Z,2.22
2019-04-14T04:44:29.130Z,2.13
2019-04-14T04:45:29.981Z,2.14
2019-04-14T04:46:29.006Z,2.17
2019-04-14T04:47:29.506Z,2.17
2019-04-14T04:48:28.986Z,2.08
2019-04-14T04:49:30.753Z,2.11
2019-04-14T04:50:30.269Z,2.04
2019-04-14T04:51:29.068Z,2.14
2019-04-14T04:52:30.030Z,2.10
2019-04-14T04:53:28.929Z,1.99
2019-04-14T04:54:30.109Z,2.04
2019-04-14T04:55:28.908Z,1.95
2019-04-14T04:56:29.742Z,2.04
2019-04-14T04:57:28.911Z,1.92
2019-04-14T04:58:28.874Z,1.92
2019-04-14T04:59:29.998Z,1.84
2019-04-14T05:00:28.853Z,1.95
2019-04-14T05:01:29.597Z,1.91
2019-04-14T05:02:28.857Z,1.97
2019-04-14T05:03:29.706Z,1.85
2019-04-14T05:04:28.816Z,1.92
2019-04-14T05:05:29.570Z,1.92
2019-04-14T05:06:28.908Z,1.95
2019-04-14T05:07:29.541Z,2.00
2019-04-14T05:08:28.779Z,2.06
2019-04-14T05:09:29.583Z,2.08
2019-04-14T05:10:28.750Z,2.11
2019-04-14T05:11:29.489Z,2.11
2019-04-14T05:12:28.735Z,2.13
2019-04-14T05:13:29.219Z,2.08
2019-04-14T05:14:28.726Z,2.13
2019-04-14T05:15:29.090Z,2.07
2019-04-14T05:16:28.676Z,2.13
2019-04-14T05:17:29.793Z,2.06
2019-04-14T05:18:29.055Z,2.06
2019-04-14T05:19:33.680Z,2.07
2019-04-14T05:20:29.667Z,2.07
2019-04-14T05:21:29.886Z,2.06
2019-04-14T05:22:28.914Z,2.15
2019-04-14T05:23:29.830Z,2.20
2019-04-14T05:24:29.082Z,2.13
2019-04-14T05:25:29.629Z,2.17
2019-04-14T05:26:28.790Z,2.25
2019-04-14T05:27:29.751Z,2.17
2019-04-14T05:28:28.860Z,2.17
2019-04-14T05:29:29.654Z,2.25
2019-04-14T05:30:28.642Z,2.15
2019-04-14T05:31:29.436Z,2.25
2019-04-14T05:32:28.503Z,2.28
2019-04-14T05:33:29.326Z,2.29
2019-04-14T05:34:28.508Z,2.38
2019-04-14T05:35:29.089Z,2.31
2019-04-14T05:36:28.462Z,2.36
2019-04-14T05:37:29.007Z,2.42
2019-04-14T05:38:31.811Z,2.42
2019-04-14T05:39:28.594Z,2.50
2019-04-14T05:40:28.435Z,2.44
2019-04-14T05:41:28.694Z,2.43
2019-04-14T05:42:29.870Z,2.47
2019-04-14T05:43:38.623Z,2.54
2019-04-14T05:44:29.684Z,2.47
2019-04-14T05:45:28.533Z,2.54
2019-04-14T05:46:29.533Z,2.65
2019-04-14T05:47:28.417Z,2.65
2019-04-14T05:48:29.404Z,2.56
2019-04-14T05:49:35.304Z,2.60
2019-04-14T05:50:29.320Z,2.68
2019-04-14T05:51:28.428Z,2.72
2019-04-14T05:52:29.482Z,2.69
2019-04-14T05:53:28.395Z,2.79
2019-04-14T05:54:29.560Z,2.83
2019-04-14T05:55:28.495Z,2.80
2019-04-14T05:56:29.535Z,2.89
2019-04-14T05:57:28.453Z,3.01
2019-04-14T05:58:28.557Z,3.05
2019-04-14T05:59:28.588Z,3.05
2019-04-14T06:00:28.241Z,3.07
2019-04-14T06:01:29.201Z,3.07
2019-04-14T06:02:30.434Z,3.13
2019-04-14T06:03:28.183Z,3.16
2019-04-14T06:04:28.562Z,3.25
2019-04-14T06:05:28.161Z,3.23
2019-04-14T06:06:28.135Z,3.13
2019-04-14T06:07:28.144Z,3.26
2019-04-14T06:08:28.115Z,3.25
2019-04-14T06:09:28.128Z,3.14
2019-04-14T06:10:28.108Z,3.22
2019-04-14T06:11:28.131Z,3.13
2019-04-14T06:12:28.071Z,3.26
2019-04-14T06:13:28.061Z,3.23
2019-04-14T06:14:28.064Z,3.41
2019-04-14T06:15:28.040Z,3.47
2019-04-14T06:16:28.021Z,3.53
2019-04-14T06:17:28.080Z,3.59
2019-04-14T06:18:28.029Z,3.60
2019-04-14T06:19:37.201Z,3.68
2019-04-14T06:20:29.030Z,3.60
2019-04-14T06:21:27.990Z,3.69
2019-04-14T06:22:27.969Z,3.74
2019-04-14T06:23:27.943Z,3.80
2019-04-14T06:24:27.938Z,3.73
2019-04-14T06:25:27.934Z,3.92
2019-04-14T06:26:27.935Z,3.91
2019-04-14T06:27:27.904Z,4.05
2019-04-14T06:28:27.894Z,3.99
2019-04-14T06:29:27.896Z,4.17
2019-04-14T06:30:27.875Z,4.10
2019-04-14T06:31:27.893Z,4.34
2019-04-14T06:32:27.859Z,4.52
2019-04-14T06:33:27.847Z,4.63
2019-04-14T06:34:27.842Z,4.63
2019-04-14T06:35:27.814Z,4.71
2019-04-14T06:36:27.836Z,4.68
2019-04-14T06:37:27.847Z,4.71
2019-04-14T06:38:27.785Z,4.89
2019-04-14T06:39:27.768Z,4.99
2019-04-14T06:40:27.759Z,4.94
2019-04-14T06:41:27.750Z,4.97
2019-04-14T06:42:27.738Z,5.14
2019-04-14T06:43:27.754Z,5.17
2019-04-14T06:44:27.716Z,5.23
2019-04-14T06:45:27.707Z,5.23
2019-04-14T06:46:27.692Z,5.41
2019-04-14T06:47:27.683Z,5.32
2019-04-14T06:48:27.727Z,5.20
2019-04-14T06:49:27.680Z,5.18
2019-04-14T06:50:27.691Z,4.93
2019-04-14T06:51:27.664Z,4.96
2019-04-14T06:52:27.718Z,4.94
2019-04-14T06:53:27.616Z,4.94
2019-04-14T06:54:27.648Z,4.73
2019-04-14T06:55:27.616Z,4.87
2019-04-14T06:56:27.614Z,4.78
2019-04-14T06:57:27.595Z,4.99
2019-04-14T06:58:27.581Z,5.02
2019-04-14T06:59:27.547Z,5.07
2019-04-14T07:00:27.576Z,5.10
2019-04-14T07:01:27.545Z,5.11
2019-04-14T07:02:27.543Z,5.08
2019-04-14T07:03:27.544Z,5.07
2019-04-14T07:04:27.515Z,5.07
2019-04-14T07:05:27.509Z,5.05
2019-04-14T07:06:27.499Z,4.74
2019-04-14T07:07:27.461Z,4.78
2019-04-14T07:08:29.825Z,4.80
2019-04-14T07:09:27.437Z,4.87
2019-04-14T07:10:27.470Z,4.80
2019-04-14T07:11:27.472Z,4.84
2019-04-14T07:12:27.436Z,4.97
2019-04-14T07:13:27.399Z,5.00
2019-04-14T07:14:31.547Z,4.97
2019-04-14T07:15:27.406Z,5.04
2019-04-14T07:16:27.361Z,5.17
2019-04-14T07:17:27.353Z,5.20
2019-04-14T07:18:27.371Z,5.38
2019-04-14T07:19:27.365Z,5.46
2019-04-14T07:20:27.319Z,5.57
2019-04-14T07:21:27.308Z,5.43
2019-04-14T07:22:27.341Z,5.39
2019-04-14T07:23:27.319Z,5.39
2019-04-14T07:24:27.307Z,5.21
2019-04-14T07:25:27.318Z,5.21
2019-04-14T07:26:27.286Z,5.20
2019-04-14T07:27:27.249Z,5.12
2019-04-14T07:28:27.258Z,5.11
2019-04-14T07:29:27.253Z,5.17
2019-04-14T07:30:27.222Z,5.11
2019-04-14T07:31:27.254Z,5.15
2019-04-14T07:32:27.227Z,5.18
2019-04-14T07:33:27.212Z,5.23
2019-04-14T07:34:27.165Z,5.21
2019-04-14T07:35:27.180Z,5.32
2019-04-14T07:36:27.168Z,5.25
2019-04-14T07:37:27.160Z,5.33
2019-04-14T07:38:27.160Z,5.46
2019-04-14T07:39:27.125Z,5.59
2019-04-14T07:40:27.125Z,5.51
2019-04-14T07:41:27.118Z,5.56
2019-04-14T07:42:27.075Z,5.53
2019-04-14T07:43:27.065Z,5.61
2019-04-14T07:44:27.069Z,5.57
2019-04-14T07:45:27.119Z,5.61
2019-04-14T07:46:27.054Z,5.57
2019-04-14T07:47:27.060Z,5.66
2019-04-14T07:48:27.031Z,5.71
2019-04-14T07:49:27.016Z,5.69
2019-04-14T07:50:26.992Z,5.71
2019-04-14T07:51:27.008Z,5.83
2019-04-14T07:52:26.979Z,5.93
2019-04-14T07:53:26.990Z,6.02
2019-04-14T07:54:26.944Z,6.07
2019-04-14T07:55:26.953Z,6.16
2019-04-14T07:56:26.943Z,6.19
2019-04-14T07:57:26.909Z,6.22
2019-04-14T07:58:26.917Z,6.26
2019-04-14T07:59:26.962Z,6.22
2019-04-14T08:00:26.909Z,6.30
2019-04-14T08:01:26.870Z,6.31
2019-04-14T08:02:26.870Z,6.31
2019-04-14T08:03:26.850Z,6.39
2019-04-14T08:04:26.852Z,6.60
2019-04-14T08:05:26.844Z,6.69
2019-04-14T08:06:26.829Z,6.87
2019-04-14T08:07:26.815Z,6.89
2019-04-14T08:08:26.788Z,7.02
2019-04-14T08:09:26.786Z,6.92
2019-04-14T08:10:26.807Z,6.84
2019-04-14T08:11:26.776Z,6.82
2019-04-14T08:12:26.758Z,6.92
2019-04-14T08:13:26.760Z,7.07
2019-04-14T08:14:26.722Z,7.15
2019-04-14T08:15:26.730Z,7.29
2019-04-14T08:16:26.708Z,7.38
2019-04-14T08:17:26.728Z,7.32
2019-04-14T08:18:26.717Z,7.38
2019-04-14T08:19:26.682Z,7.42
2019-04-14T08:20:27.885Z,7.40
2019-04-14T08:21:26.673Z,7.58
2019-04-14T08:22:26.655Z,7.58
2019-04-14T08:23:26.654Z,7.85
2019-04-14T08:24:26.621Z,7.87
2019-04-14T08:25:34.178Z,7.83
2019-04-14T08:26:34.156Z,7.93
2019-04-14T08:27:26.606Z,7.98
2019-04-14T08:28:35.591Z,7.80
2019-04-14T08:29:26.578Z,7.79
2019-04-14T08:30:26.597Z,7.80
2019-04-14T08:31:26.535Z,7.87
2019-04-14T08:32:26.527Z,8.01
2019-04-14T08:33:26.538Z,8.10
2019-04-14T08:34:26.501Z,8.24
2019-04-14T08:35:35.153Z,8.63
2019-04-14T08:36:26.520Z,8.64
2019-04-14T08:37:26.514Z,8.64
2019-04-14T08:38:26.499Z,8.78
2019-04-14T08:39:26.469Z,8.79
2019-04-14T08:40:26.476Z,8.97
2019-04-14T08:41:35.124Z,9.10
2019-04-14T08:42:26.412Z,9.14
2019-04-14T08:43:26.403Z,9.06
2019-04-14T08:44:26.399Z,8.84
2019-04-14T08:45:26.377Z,8.74
2019-04-14T08:46:26.368Z,8.76
2019-04-14T08:47:26.386Z,8.81
2019-04-14T08:48:26.352Z,8.79
2019-04-14T08:49:26.334Z,8.95
2019-04-14T08:50:38.686Z,9.19
2019-04-14T08:51:27.312Z,9.21
2019-04-14T08:52:26.306Z,9.04
2019-04-14T08:53:26.317Z,9.31
2019-04-14T08:54:26.295Z,9.34
2019-04-14T08:55:26.270Z,9.29
2019-04-14T08:56:26.261Z,9.41
2019-04-14T08:57:26.247Z,9.48
2019-04-14T08:58:26.235Z,9.28
2019-04-14T08:59:26.239Z,9.25
2019-04-14T09:00:26.232Z,9.22
2019-04-14T09:01:26.202Z,9.31
2019-04-14T09:02:26.196Z,9.29
2019-04-14T09:03:26.179Z,9.48
2019-04-14T09:04:26.488Z,9.58
2019-04-14T09:05:26.156Z,9.79
2019-04-14T09:06:26.161Z,9.97
2019-04-14T09:07:26.138Z,9.98
2019-04-14T09:08:26.123Z,9.80
2019-04-14T09:09:26.128Z,9.99
2019-04-14T09:10:26.100Z,10.04
2019-04-14T09:11:26.095Z,9.92
2019-04-14T09:12:26.092Z,10.01
2019-04-14T09:13:26.070Z,10.04
2019-04-14T09:14:26.127Z,10.09
2019-04-14T09:15:26.067Z,10.10
2019-04-14T09:16:26.035Z,10.22
2019-04-14T09:17:26.029Z,10.13
2019-04-14T09:18:26.021Z,9.92
2019-04-14T09:19:26.003Z,9.83
2019-04-14T09:20:25.993Z,9.95
2019-04-14T09:21:25.995Z,9.89
2019-04-14T09:22:25.970Z,9.87
2019-04-14T09:23:25.958Z,10.04
2019-04-14T09:24:25.964Z,10.19
2019-04-14T09:25:25.938Z,10.35
2019-04-14T09:26:25.940Z,10.46
2019-04-14T09:27:25.922Z,10.38
2019-04-14T09:28:25.904Z,10.54
2019-04-14T09:29:25.901Z,10.60
2019-04-14T09:30:25.887Z,10.67
2019-04-14T09:31:25.870Z,10.72
2019-04-14T09:32:25.887Z,10.60
2019-04-14T09:33:25.849Z,10.69
2019-04-14T09:34:25.840Z,10.78
2019-04-14T09:35:25.831Z,10.79
2019-04-14T09:36:25.823Z,10.74
2019-04-14T09:37:25.812Z,10.86
2019-04-14T09:38:25.810Z,10.72
2019-04-14T09:39:25.784Z,10.84
2019-04-14T09:40:25.772Z,10.94
2019-04-14T09:41:25.760Z,10.90
2019-04-14T09:42:25.751Z,10.96
2019-04-14T09:43:25.758Z,11.17
2019-04-14T09:44:25.737Z,11.19
2019-04-14T09:45:25.739Z,11.23
2019-04-14T09:46:25.705Z,11.27
2019-04-14T09:47:25.696Z,11.19
2019-04-14T09:48:25.687Z,10.96
2019-04-14T09:49:25.685Z,10.81
2019-04-14T09:50:25.663Z,10.68
2019-04-14T09:51:25.669Z,10.61
2019-04-14T09:52:25.643Z,10.61
2019-04-14T09:53:25.636Z,10.67
2019-04-14T09:54:25.617Z,10.51
2019-04-14T09:55:25.621Z,10.51
2019-04-14T09:56:25.598Z,10.61
2019-04-14T09:57:25.583Z,10.67
2019-04-14T09:58:25.572Z,10.64
2019-04-14T09:59:25.571Z,10.76
2019-04-14T10:00:25.554Z,10.61
2019-04-14T10:01:25.557Z,10.81
2019-04-14T10:02:25.570Z,10.99
2019-04-14T10:03:25.522Z,11.11
2019-04-14T10:04:25.507Z,11.43
2019-04-14T10:05:25.510Z,11.36
2019-04-14T10:06:25.485Z,11.41
2019-04-14T10:07:25.472Z,11.55
2019-04-14T10:08:25.497Z,11.63
2019-04-14T10:09:25.461Z,11.51
2019-04-14T10:10:25.442Z,11.40
2019-04-14T10:11:25.434Z,11.26
2019-04-14T10:12:25.418Z,11.30
2019-04-14T10:13:25.413Z,11.29
2019-04-14T10:14:25.420Z,11.23
2019-04-14T10:15:25.387Z,10.89
2019-04-14T10:16:25.374Z,10.93
2019-04-14T10:17:25.362Z,10.61
2019-04-14T10:18:25.349Z,10.53
2019-04-14T10:19:25.343Z,10.35
2019-04-14T10:20:25.367Z,10.41
2019-04-14T10:21:25.318Z,10.64
2019-04-14T10:22:33.796Z,10.57
2019-04-14T10:23:26.293Z,10.38
2019-04-14T10:24:25.286Z,10.38
2019-04-14T10:25:25.276Z,10.35
2019-04-14T10:26:25.281Z,10.46
2019-04-14T10:27:25.250Z,10.31
2019-04-14T10:28:25.247Z,10.34
2019-04-14T10:29:25.230Z,10.40
2019-04-14T10:30:25.218Z,10.31
2019-04-14T10:31:25.222Z,10.35
2019-04-14T10:32:25.203Z,10.54
2019-04-14T10:33:25.188Z,10.78
2019-04-14T10:34:25.172Z,11.00
2019-04-14T10:35:25.165Z,10.78
2019-04-14T10:36:25.153Z,10.97
2019-04-14T10:37:25.155Z,11.08
2019-04-14T10:38:25.141Z,11.08
2019-04-14T10:39:25.120Z,11.07
2019-04-14T10:40:25.113Z,11.00
2019-04-14T10:41:25.100Z,11.11
2019-04-14T10:42:25.085Z,11.19
2019-04-14T10:43:25.087Z,11.29
2019-04-14T10:44:25.073Z,11.55
2019-04-14T10:45:25.056Z,11.70
2019-04-14T10:46:25.046Z,11.81
2019-04-14T10:47:25.031Z,11.78
2019-04-14T10:48:25.032Z,11.60
2019-04-14T10:49:25.008Z,11.77
2019-04-14T10:50:30.924Z,12.00
2019-04-14T10:51:30.244Z,11.83
2019-04-14T10:52:25.974Z,11.97
2019-04-14T10:53:24.966Z,12.09
2019-04-14T10:54:24.965Z,12.21
2019-04-14T10:55:24.954Z,12.04
2019-04-14T10:56:24.935Z,12.06
2019-04-14T10:57:24.921Z,12.25
2019-04-14T10:58:24.906Z,12.24
2019-04-14T10:59:24.898Z,12.13
2019-04-14T11:00:24.901Z,11.99
2019-04-14T11:01:24.874Z,11.78
2019-04-14T11:02:24.880Z,11.83
2019-04-14T11:03:24.854Z,12.00
2019-04-14T11:04:24.841Z,12.02
2019-04-14T11:05:24.832Z,11.97
2019-04-14T11:06:24.835Z,11.84
2019-04-14T11:07:24.810Z,11.43
2019-04-14T11:08:24.806Z,11.52
2019-04-14T11:09:24.803Z,11.41
2019-04-14T11:10:24.782Z,11.50
2019-04-14T11:11:24.764Z,11.84
2019-04-14T11:12:24.762Z,11.97
2019-04-14T11:13:24.740Z,11.99
2019-04-14T11:14:24.732Z,11.70
2019-04-14T11:15:24.723Z,11.50
2019-04-14T11:16:24.713Z,11.43
2019-04-14T11:17:24.718Z,11.33
2019-04-14T11:18:24.690Z,11.47
2019-04-14T11:19:24.679Z,11.65
2019-04-14T11:20:24.681Z,11.62
2019-04-14T11:21:24.667Z,11.65
2019-04-14T11:22:24.647Z,11.52
2019-04-14T11:23:24.653Z,11.35
2019-04-14T11:24:24.621Z,11.17
2019-04-14T11:25:24.607Z,11.08
2019-04-14T11:26:24.596Z,11.00
2019-04-14T11:27:24.586Z,11.04
2019-04-14T11:28:24.582Z,11.08
2019-04-14T11:29:24.581Z,11.15
2019-04-14T11:30:24.552Z,11.14
2019-04-14T11:31:24.543Z,11.33
2019-04-14T11:32:24.531Z,11.32
2019-04-14T11:33:24.519Z,11.65
2019-04-14T11:34:24.512Z,11.70
2019-04-14T11:35:24.526Z,11.59
2019-04-14T11:36:24.489Z,11.44
2019-04-14T11:37:24.481Z,11.25
2019-04-14T11:38:24.463Z,11.18
2019-04-14T11:39:24.452Z,11.00
2019-04-14T11:40:24.442Z,11.18
2019-04-14T11:41:24.446Z,11.48
2019-04-14T11:42:24.435Z,11.80
2019-04-14T11:43:24.434Z,11.95
2019-04-14T11:44:24.421Z,11.88
2019-04-14T11:45:24.396Z,11.77
2019-04-14T11:46:24.409Z,11.90
2019-04-14T11:47:24.369Z,12.03
2019-04-14T11:48:24.405Z,12.03
2019-04-14T11:49:24.347Z,12.04
2019-04-14T11:50:24.329Z,12.21
2019-04-14T11:51:24.318Z,12.35
2019-04-14T11:52:24.335Z,12.35
2019-04-14T11:53:24.361Z,12.47
2019-04-14T11:54:24.292Z,12.45
2019-04-14T11:55:24.278Z,12.70
2019-04-14T11:56:24.262Z,12.93
2019-04-14T11:57:24.251Z,12.97
2019-04-14T11:58:24.248Z,12.93
2019-04-14T11:59:24.246Z,12.79
2019-04-14T12:00:24.223Z,12.55
2019-04-14T12:01:24.209Z,12.47
2019-04-14T12:02:24.203Z,12.29
2019-04-14T12:03:24.195Z,12.37
2019-04-14T12:04:24.202Z,12.27
2019-04-14T12:05:24.177Z,12.21
2019-04-14T12:06:24.165Z,12.17
2019-04-14T12:07:24.139Z,12.40
2019-04-14T12:08:24.132Z,12.15
2019-04-14T12:09:24.119Z,12.31
2019-04-14T12:10:24.133Z,12.28
2019-04-14T12:11:24.119Z,12.18
2019-04-14T12:12:24.100Z,12.40
2019-04-14T12:13:24.073Z,12.55
2019-04-14T12:14:24.102Z,12.21
2019-04-14T12:15:24.082Z,12.04
2019-04-14T12:16:24.053Z,11.87
2019-04-14T12:17:24.041Z,11.94
2019-04-14T12:18:24.017Z,11.78
2019-04-14T12:19:24.005Z,11.81
2019-04-14T12:20:24.020Z,11.83
2019-04-14T12:21:23.996Z,11.68
2019-04-14T12:22:24.022Z,11.36
2019-04-14T12:23:24.015Z,11.18
2019-04-14T12:24:23.955Z,11.05
2019-04-14T12:25:23.968Z,11.05
2019-04-14T12:26:23.931Z,11.18
2019-04-14T12:27:23.969Z,11.18
2019-04-14T12:28:24.070Z,11.14
2019-04-14T12:29:23.895Z,11.19
2019-04-14T12:30:24.481Z,11.05
2019-04-14T12:31:24.201Z,11.08
2019-04-14T12:32:23.890Z,11.04
2019-04-14T12:33:23.880Z,11.05
2019-04-14T12:34:23.897Z,11.04
2019-04-14T12:35:23.841Z,11.30
2019-04-14T12:36:23.822Z,11.62
2019-04-14T12:37:23.833Z,11.83
2019-04-14T12:38:23.793Z,11.97
2019-04-14T12:39:23.806Z,12.09
2019-04-14T12:40:23.812Z,12.27
2019-04-14T12:41:24.162Z,12.36
2019-04-14T12:42:23.769Z,12.25
2019-04-14T12:43:23.758Z,12.00
2019-04-14T12:44:23.748Z,11.84
2019-04-14T12:45:23.732Z,11.65
2019-04-14T12:46:23.723Z,11.60
2019-04-14T12:47:23.731Z,11.43
2019-04-14T12:48:23.685Z,11.30
2019-04-14T12:49:23.678Z,11.22
2019-04-14T12:50:23.660Z,11.50
2019-04-14T12:51:23.662Z,11.51
2019-04-14T12:52:23.637Z,11.45
2019-04-14T12:53:23.638Z,11.69
2019-04-14T12:54:23.685Z,11.80
2019-04-14T12:55:23.629Z,11.95
2019-04-14T12:56:23.615Z,12.09
2019-04-14T12:57:23.583Z,12.29
2019-04-14T12:58:23.579Z,12.29
2019-04-14T12:59:23.731Z,12.22
2019-04-14T13:00:23.554Z,12.35
2019-04-14T13:01:23.537Z,12.29
2019-04-14T13:02:23.541Z,12.28
2019-04-14T13:03:23.515Z,12.29
2019-04-14T13:04:23.510Z,12.36
2019-04-14T13:05:23.498Z,12.39
2019-04-14T13:06:23.486Z,12.49
2019-04-14T13:07:23.474Z,12.37
2019-04-14T13:08:23.478Z,12.22
2019-04-14T13:09:23.456Z,12.02
2019-04-14T13:10:23.444Z,11.86
2019-04-14T13:11:23.446Z,11.86
2019-04-14T13:12:23.439Z,11.88
2019-04-14T13:13:23.431Z,11.94
2019-04-14T13:14:23.399Z,12.04
2019-04-14T13:15:23.397Z,12.22
2019-04-14T13:16:23.373Z,12.45
2019-04-14T13:17:23.370Z,12.45
2019-04-14T13:18:23.349Z,12.36
2019-04-14T13:19:23.353Z,12.36
2019-04-14T13:20:23.335Z,12.24
2019-04-14T13:21:23.323Z,11.94
2019-04-14T13:22:33.319Z,11.99
2019-04-14T13:23:24.298Z,11.99
2019-04-14T13:24:23.294Z,11.95
2019-04-14T13:25:23.283Z,12.07
2019-04-14T13:26:23.261Z,12.31